Poltava, Ukraine
Current Conditions -  °F | °C
As of 8:00 PM on Sunday 23 Nov 2014 (Local Time) from UKHH Reporting Station
Clear Clear  
Wind Chill: 17°   Ceiling: Unl
Heat Index: 23°   Visibility: 4mi
Dew Point: 19°   Wind: 4mph
Humidity: 86%   Direction: 30°NNE
Pressure: 30.45"   Gusts: NA
Location:  49.58°N, 34.57°E
Report Text: UKHH 231700Z 03002MPS 360V070 6000 NSC M05/M07 Q1031 250///65 BECMG 2100 BR SCT007
Loading
Personal Weather Stations






























Interactive Weather Map New forecast layout! Learn more

10-Day Weather Forecast

Advertisements
Track Severe Weather on mobile